createdAt,value
2022-10-24T00:00:01.084Z,99.99
2022-10-24T00:01:01.076Z,99.99
2022-10-24T00:02:01.101Z,99.99
2022-10-24T00:03:01.172Z,99.99
2022-10-24T00:04:01.109Z,99.99
2022-10-24T00:05:01.182Z,99.99
2022-10-24T00:06:01.034Z,99.99
2022-10-24T00:07:01.078Z,99.99
2022-10-24T00:08:01.046Z,99.99
2022-10-24T00:09:01.001Z,99.99
2022-10-24T00:10:01.017Z,99.99
2022-10-24T00:11:00.979Z,99.99
2022-10-24T00:12:00.961Z,99.99
2022-10-24T00:13:00.967Z,99.99
2022-10-24T00:14:01.032Z,99.99
2022-10-24T00:15:00.930Z,99.99
2022-10-24T00:16:00.911Z,99.99
2022-10-24T00:17:00.941Z,99.99
2022-10-24T00:18:00.924Z,99.99
2022-10-24T00:19:00.895Z,99.99
2022-10-24T00:20:00.880Z,99.99
2022-10-24T00:21:00.908Z,99.99
2022-10-24T00:22:00.876Z,99.99
2022-10-24T00:23:00.894Z,99.99
2022-10-24T00:24:00.889Z,99.99
2022-10-24T00:25:00.876Z,99.99
2022-10-24T00:26:00.817Z,99.99
2022-10-24T00:27:00.823Z,99.99
2022-10-24T00:28:00.789Z,99.99
2022-10-24T00:30:00.814Z,99.99
2022-10-24T00:31:00.761Z,99.99
2022-10-24T00:32:00.794Z,99.99
2022-10-24T00:33:00.769Z,99.99
2022-10-24T00:34:00.800Z,99.99
2022-10-24T00:35:00.733Z,99.99
2022-10-24T00:36:00.725Z,99.99
2022-10-24T00:37:00.735Z,99.99
2022-10-24T00:38:00.687Z,99.99
2022-10-24T00:39:00.760Z,99.99
2022-10-24T00:40:00.696Z,99.99
2022-10-24T00:41:00.927Z,99.99
2022-10-24T00:42:00.651Z,99.99
2022-10-24T00:43:00.642Z,99.99
2022-10-24T00:44:00.666Z,99.99
2022-10-24T00:45:00.621Z,99.99
2022-10-24T00:46:00.604Z,99.99
2022-10-24T00:47:00.663Z,99.99
2022-10-24T00:48:00.608Z,99.99
2022-10-24T00:49:00.651Z,99.99
2022-10-24T00:50:00.609Z,99.99
2022-10-24T00:51:00.616Z,99.99
2022-10-24T00:52:00.560Z,99.99
2022-10-24T00:53:00.573Z,99.99
2022-10-24T00:54:00.622Z,99.99
2022-10-24T00:55:00.534Z,99.99
2022-10-24T00:56:00.542Z,99.99
2022-10-24T00:57:00.547Z,99.99
2022-10-24T00:58:00.520Z,99.99
2022-10-24T00:59:00.487Z,99.99
2022-10-24T01:00:00.485Z,99.99
2022-10-24T01:01:00.564Z,99.99
2022-10-24T01:02:00.509Z,99.99
2022-10-24T01:03:00.439Z,99.99
2022-10-24T01:04:00.440Z,99.99
2022-10-24T01:05:00.470Z,99.99
2022-10-24T01:06:00.406Z,99.99
2022-10-24T01:07:00.424Z,99.99
2022-10-24T01:08:00.388Z,99.99
2022-10-24T01:09:00.401Z,99.99
2022-10-24T01:10:00.400Z,99.99
2022-10-24T01:11:00.360Z,99.99
2022-10-24T01:12:00.428Z,99.99
2022-10-24T01:13:00.420Z,99.99
2022-10-24T01:14:00.326Z,99.99
2022-10-24T01:15:00.339Z,99.99
2022-10-24T01:16:00.367Z,99.99
2022-10-24T01:17:00.323Z,99.99
2022-10-24T01:18:00.373Z,99.99
2022-10-24T01:19:00.289Z,99.99
2022-10-24T01:20:00.359Z,99.99
2022-10-24T01:21:00.278Z,99.99
2022-10-24T01:22:00.299Z,99.99
2022-10-24T01:23:00.289Z,99.99
2022-10-24T01:24:00.238Z,99.99
2022-10-24T01:25:00.316Z,99.99
2022-10-24T01:26:00.198Z,99.99
2022-10-24T01:27:00.207Z,99.99
2022-10-24T01:28:00.242Z,99.99
2022-10-24T01:29:00.200Z,99.99
2022-10-24T01:30:00.179Z,99.99
2022-10-24T01:31:00.202Z,99.99
2022-10-24T01:32:00.169Z,99.99
2022-10-24T01:33:00.156Z,99.99
2022-10-24T01:34:00.167Z,99.99
2022-10-24T01:35:00.175Z,99.99
2022-10-24T01:36:00.182Z,99.99
2022-10-24T01:37:00.346Z,99.99
2022-10-24T01:38:00.092Z,99.99
2022-10-24T01:39:00.099Z,99.99
2022-10-24T01:40:00.097Z,99.99
2022-10-24T01:41:00.092Z,99.99
2022-10-24T01:42:00.052Z,99.99
2022-10-24T01:43:00.044Z,99.99
2022-10-24T01:44:00.033Z,99.99
2022-10-24T01:45:00.094Z,99.99
2022-10-24T01:46:00.066Z,99.99
2022-10-24T01:47:00.030Z,99.99
2022-10-24T01:47:59.999Z,99.99
2022-10-24T01:49:00.001Z,99.99
2022-10-24T01:49:59.981Z,99.99
2022-10-24T01:50:59.975Z,99.99
2022-10-24T01:52:00.043Z,99.99
2022-10-24T01:53:00.036Z,99.99
2022-10-24T01:53:59.945Z,99.99
2022-10-24T01:55:00.197Z,99.99
2022-10-24T01:55:59.931Z,99.99
2022-10-24T01:56:59.958Z,99.99
2022-10-24T01:57:59.930Z,99.99
2022-10-24T01:58:59.897Z,99.99
2022-10-24T01:59:59.888Z,99.99
2022-10-24T02:00:59.871Z,99.99
2022-10-24T02:01:59.935Z,99.99
2022-10-24T02:02:59.865Z,99.99
2022-10-24T02:03:59.857Z,99.99
2022-10-24T02:04:59.834Z,99.99
2022-10-24T02:05:59.811Z,99.99
2022-10-24T02:06:59.811Z,99.99
2022-10-24T02:07:59.833Z,99.99
2022-10-24T02:08:59.816Z,99.99
2022-10-24T02:09:59.824Z,99.99
2022-10-24T02:10:59.812Z,99.99
2022-10-24T02:11:59.749Z,99.99
2022-10-24T02:12:59.813Z,99.99
2022-10-24T02:13:59.758Z,99.99
2022-10-24T02:14:59.768Z,99.99
2022-10-24T02:15:59.750Z,99.99
2022-10-24T02:16:59.698Z,99.99
2022-10-24T02:17:59.717Z,99.99
2022-10-24T02:18:59.722Z,99.99
2022-10-24T02:19:59.683Z,99.99
2022-10-24T02:20:59.662Z,99.99
2022-10-24T02:21:59.714Z,99.99
2022-10-24T02:22:59.701Z,99.99
2022-10-24T02:23:59.710Z,99.93
2022-10-24T02:24:59.654Z,99.99
2022-10-24T02:25:59.725Z,99.99
2022-10-24T02:26:59.655Z,99.99
2022-10-24T02:27:59.705Z,99.99
2022-10-24T02:28:59.576Z,99.99
2022-10-24T02:29:59.567Z,99.99
2022-10-24T02:30:59.566Z,99.99
2022-10-24T02:31:59.554Z,99.83
2022-10-24T02:32:59.558Z,99.52
2022-10-24T02:33:59.531Z,99.73
2022-10-24T02:34:59.542Z,99.99
2022-10-24T02:35:59.544Z,99.99
2022-10-24T02:36:59.506Z,99.99
2022-10-24T02:37:59.572Z,99.99
2022-10-24T02:38:59.476Z,99.99
2022-10-24T02:39:59.496Z,99.99
2022-10-24T02:40:59.485Z,99.93
2022-10-24T02:41:59.471Z,99.93
2022-10-24T02:42:59.454Z,99.99
2022-10-24T02:43:59.435Z,99.99
2022-10-24T02:44:59.433Z,99.99
2022-10-24T02:45:59.414Z,99.99
2022-10-24T02:46:59.413Z,99.99
2022-10-24T02:47:59.627Z,99.99
2022-10-24T02:48:59.396Z,99.99
2022-10-24T02:49:59.347Z,99.99
2022-10-24T02:50:59.422Z,99.99
2022-10-24T02:51:59.347Z,99.37
2022-10-24T02:52:59.423Z,99.88
2022-10-24T02:53:59.328Z,99.99
2022-10-24T02:54:59.348Z,99.99
2022-10-24T02:55:59.293Z,99.99
2022-10-24T02:56:59.292Z,99.99
2022-10-24T02:57:59.281Z,99.99
2022-10-24T02:58:59.446Z,99.99
2022-10-24T02:59:59.272Z,99.99
2022-10-24T03:00:59.368Z,99.99
2022-10-24T03:01:59.281Z,99.99
2022-10-24T03:02:59.264Z,99.99
2022-10-24T03:03:59.207Z,99.99
2022-10-24T03:04:59.240Z,99.99
2022-10-24T03:05:59.201Z,99.99
2022-10-24T03:06:59.202Z,99.99
2022-10-24T03:07:59.170Z,99.99
2022-10-24T03:08:59.195Z,99.99
2022-10-24T03:09:59.198Z,99.99
2022-10-24T03:10:59.192Z,99.99
2022-10-24T03:11:59.157Z,99.99
2022-10-24T03:12:59.139Z,99.99
2022-10-24T03:13:59.148Z,99.99
2022-10-24T03:14:59.155Z,99.99
2022-10-24T03:15:59.128Z,99.99
2022-10-24T03:16:59.147Z,99.99
2022-10-24T03:17:59.122Z,99.99
2022-10-24T03:18:59.078Z,99.99
2022-10-24T03:19:59.083Z,99.99
2022-10-24T03:20:59.079Z,99.99
2022-10-24T03:21:59.072Z,99.99
2022-10-24T03:22:59.038Z,99.99
2022-10-24T03:23:59.140Z,99.99
2022-10-24T03:24:58.988Z,99.99
2022-10-24T03:25:59.015Z,99.99
2022-10-24T03:26:58.919Z,99.99
2022-10-24T03:27:58.986Z,99.99
2022-10-24T03:28:58.979Z,99.99
2022-10-24T03:29:58.924Z,99.99
2022-10-24T03:30:58.963Z,99.99
2022-10-24T03:31:58.932Z,99.99
2022-10-24T03:32:58.914Z,99.99
2022-10-24T03:33:58.915Z,99.99
2022-10-24T03:34:58.916Z,99.99
2022-10-24T03:35:58.926Z,99.99
2022-10-24T03:36:58.893Z,99.99
2022-10-24T03:37:58.919Z,99.99
2022-10-24T03:38:58.872Z,99.99
2022-10-24T03:39:58.855Z,99.99
2022-10-24T03:40:58.866Z,99.99
2022-10-24T03:41:58.865Z,99.99
2022-10-24T03:42:58.872Z,99.99
2022-10-24T03:43:58.834Z,99.99
2022-10-24T03:44:58.871Z,99.99
2022-10-24T03:45:58.782Z,99.99
2022-10-24T03:46:58.765Z,99.99
2022-10-24T03:47:58.836Z,99.99
2022-10-24T03:48:58.821Z,99.99
2022-10-24T03:49:58.765Z,99.99
2022-10-24T03:50:58.686Z,99.99
2022-10-24T03:51:58.729Z,99.99
2022-10-24T03:52:58.735Z,99.99
2022-10-24T03:53:58.759Z,99.99
2022-10-24T03:54:58.713Z,99.99
2022-10-24T03:55:58.705Z,99.99
2022-10-24T03:56:58.710Z,99.99
2022-10-24T03:57:58.670Z,99.99
2022-10-24T03:58:58.683Z,99.99
2022-10-24T03:59:58.679Z,99.99
2022-10-24T04:00:58.848Z,99.99
2022-10-24T04:01:58.698Z,99.99
2022-10-24T04:02:58.714Z,99.99
2022-10-24T04:03:58.636Z,99.99
2022-10-24T04:04:58.627Z,99.99
2022-10-24T04:05:58.604Z,99.99
2022-10-24T04:06:58.594Z,99.99
2022-10-24T04:07:58.618Z,99.99
2022-10-24T04:08:58.558Z,99.99
2022-10-24T04:09:58.563Z,99.99
2022-10-24T04:10:58.544Z,99.99
2022-10-24T04:11:58.521Z,99.99
2022-10-24T04:12:58.537Z,99.99
2022-10-24T04:13:58.603Z,99.99
2022-10-24T04:15:02.429Z,99.99
2022-10-24T04:15:58.494Z,99.99
2022-10-24T04:16:58.411Z,99.99
2022-10-24T04:17:58.481Z,99.99
2022-10-24T04:18:58.462Z,99.99
2022-10-24T04:19:58.448Z,99.99
2022-10-24T04:20:58.475Z,99.99
2022-10-24T04:21:58.465Z,99.99
2022-10-24T04:23:00.093Z,99.99
2022-10-24T04:23:58.406Z,99.99
2022-10-24T04:24:58.439Z,99.99
2022-10-24T04:25:58.427Z,99.99
2022-10-24T04:26:58.398Z,99.99
2022-10-24T04:27:58.362Z,99.99
2022-10-24T04:28:58.369Z,99.99
2022-10-24T04:29:58.392Z,99.99
2022-10-24T04:30:58.410Z,99.99
2022-10-24T04:31:58.316Z,99.99
2022-10-24T04:32:58.310Z,99.99
2022-10-24T04:33:58.326Z,99.99
2022-10-24T04:34:58.301Z,99.99
2022-10-24T04:35:58.288Z,99.99
2022-10-24T04:36:58.276Z,99.99
2022-10-24T04:37:58.327Z,99.99
2022-10-24T04:38:58.277Z,99.99
2022-10-24T04:39:58.242Z,99.99
2022-10-24T04:40:58.221Z,99.99
2022-10-24T04:41:59.008Z,99.99
2022-10-24T04:42:58.283Z,99.99
2022-10-24T04:43:58.216Z,99.99
2022-10-24T04:44:58.295Z,99.99
2022-10-24T04:45:58.201Z,99.99
2022-10-24T04:46:58.243Z,99.99
2022-10-24T04:47:58.187Z,99.99
2022-10-24T04:48:58.194Z,99.99
2022-10-24T04:49:58.123Z,99.99
2022-10-24T04:50:58.143Z,99.99
2022-10-24T04:51:58.124Z,99.99
2022-10-24T04:52:58.381Z,99.99
2022-10-24T04:53:58.149Z,99.99
2022-10-24T04:54:58.042Z,99.99
2022-10-24T04:55:58.150Z,99.99
2022-10-24T04:56:58.053Z,99.99
2022-10-24T04:57:58.091Z,99.99
2022-10-24T04:58:58.074Z,99.99
2022-10-24T04:59:58.048Z,99.99
2022-10-24T05:00:58.067Z,99.99
2022-10-24T05:01:58.055Z,99.99
2022-10-24T05:02:59.084Z,99.99
2022-10-24T05:03:58.129Z,99.99
2022-10-24T05:04:58.048Z,99.99
2022-10-24T05:05:57.956Z,99.99
2022-10-24T05:06:57.978Z,99.99
2022-10-24T05:07:58.005Z,99.99
2022-10-24T05:08:57.948Z,99.99
2022-10-24T05:09:58.006Z,99.99
2022-10-24T05:10:57.940Z,99.99
2022-10-24T05:11:57.963Z,99.99
2022-10-24T05:12:57.957Z,99.99
2022-10-24T05:13:57.939Z,99.99
2022-10-24T05:14:58.016Z,99.99
2022-10-24T05:15:57.901Z,99.99
2022-10-24T05:16:57.911Z,99.99
2022-10-24T05:17:57.897Z,99.99
2022-10-24T05:18:57.855Z,99.99
2022-10-24T05:19:57.888Z,99.99
2022-10-24T05:20:57.841Z,99.99
2022-10-24T05:21:57.822Z,99.99
2022-10-24T05:22:57.811Z,99.99
2022-10-24T05:23:57.749Z,99.99
2022-10-24T05:24:57.820Z,99.99
2022-10-24T05:25:57.779Z,99.99
2022-10-24T05:26:57.816Z,99.99
2022-10-24T05:27:57.759Z,99.99
2022-10-24T05:28:57.794Z,99.99
2022-10-24T05:29:58.026Z,99.99
2022-10-24T05:30:57.751Z,99.99
2022-10-24T05:31:57.750Z,99.99
2022-10-24T05:32:57.765Z,99.99
2022-10-24T05:33:57.694Z,99.99
2022-10-24T05:34:57.641Z,99.67
2022-10-24T05:35:57.652Z,99.77
2022-10-24T05:36:57.635Z,99.77
2022-10-24T05:37:57.622Z,99.99
2022-10-24T05:38:57.713Z,99.99
2022-10-24T05:39:57.624Z,99.99
2022-10-24T05:40:57.577Z,99.99
2022-10-24T05:41:57.632Z,99.99
2022-10-24T05:42:57.666Z,99.99
2022-10-24T05:43:57.655Z,99.99
2022-10-24T05:44:57.581Z,99.99
2022-10-24T05:45:57.581Z,99.99
2022-10-24T05:46:57.514Z,99.99
2022-10-24T05:47:57.563Z,99.67
2022-10-24T05:48:57.542Z,99.57
2022-10-24T05:49:57.502Z,99.88
2022-10-24T05:50:57.590Z,99.99
2022-10-24T05:51:57.482Z,99.99
2022-10-24T05:52:57.437Z,99.99
2022-10-24T05:53:57.496Z,99.99
2022-10-24T05:55:06.876Z,99.99
2022-10-24T05:55:57.458Z,99.99
2022-10-24T05:56:57.500Z,99.99
2022-10-24T05:57:57.427Z,99.99
2022-10-24T05:58:57.416Z,99.99
2022-10-24T05:59:57.406Z,99.99
2022-10-24T06:00:57.387Z,99.99
2022-10-24T06:01:57.545Z,99.99
2022-10-24T06:02:57.410Z,99.99
2022-10-24T06:03:57.385Z,99.99
2022-10-24T06:04:57.413Z,99.99
2022-10-24T06:05:57.393Z,99.99
2022-10-24T06:06:57.430Z,99.99
2022-10-24T06:07:57.499Z,99.99
2022-10-24T06:08:57.466Z,99.82
2022-10-24T06:09:57.413Z,99.99
2022-10-24T06:10:57.721Z,99.99
2022-10-24T06:11:57.415Z,99.99
2022-10-24T06:12:57.316Z,99.99
2022-10-24T06:13:57.349Z,99.57
2022-10-24T06:14:57.280Z,99.62
2022-10-24T06:15:57.305Z,99.99
2022-10-24T06:16:57.295Z,99.99
2022-10-24T06:17:57.296Z,99.99
2022-10-24T06:18:57.230Z,99.99
2022-10-24T06:19:57.183Z,99.99
2022-10-24T06:20:57.201Z,99.99
2022-10-24T06:21:57.172Z,99.99
2022-10-24T06:22:57.166Z,99.99
2022-10-24T06:23:57.193Z,99.99
2022-10-24T06:24:57.126Z,99.99
2022-10-24T06:25:57.117Z,99.99
2022-10-24T06:26:57.090Z,99.99
2022-10-24T06:27:57.190Z,99.99
2022-10-24T06:28:57.133Z,99.99
2022-10-24T06:29:57.176Z,99.99
2022-10-24T06:30:57.245Z,99.99
2022-10-24T06:31:57.322Z,99.99
2022-10-24T06:32:57.051Z,99.99
2022-10-24T06:33:57.033Z,99.99
2022-10-24T06:34:57.032Z,99.99
2022-10-24T06:35:57.335Z,99.99
2022-10-24T06:36:57.017Z,99.99
2022-10-24T06:37:57.016Z,99.99
2022-10-24T06:38:56.987Z,99.99
2022-10-24T06:39:56.982Z,99.57
2022-10-24T06:40:56.990Z,99.16
2022-10-24T06:41:57.002Z,99.77
2022-10-24T06:42:57.006Z,99.88
2022-10-24T06:43:56.947Z,99.99
2022-10-24T06:44:57.306Z,99.99
2022-10-24T06:45:57.030Z,99.88
2022-10-24T06:46:57.058Z,99.88
2022-10-24T06:47:57.250Z,99.57
2022-10-24T06:48:56.895Z,99.98
2022-10-24T06:49:56.893Z,99.99
2022-10-24T06:50:56.920Z,99.99
2022-10-24T06:51:56.906Z,99.99
2022-10-24T06:52:56.849Z,99.99
2022-10-24T06:53:56.844Z,99.99
2022-10-24T06:54:56.823Z,99.83
2022-10-24T06:55:56.831Z,99.93
2022-10-24T06:56:56.844Z,99.99
2022-10-24T06:57:56.808Z,99.99
2022-10-24T06:58:56.839Z,99.99
2022-10-24T06:59:56.797Z,99.99
2022-10-24T07:00:56.770Z,99.99
2022-10-24T07:02:00.357Z,99.99
2022-10-24T07:02:57.091Z,99.99
2022-10-24T07:03:56.733Z,99.99
2022-10-24T07:04:56.708Z,99.52
2022-10-24T07:05:56.706Z,99.83
2022-10-24T07:06:56.934Z,99.83
2022-10-24T07:07:56.733Z,99.99
2022-10-24T07:08:56.677Z,99.99
2022-10-24T07:09:56.697Z,99.99
2022-10-24T07:10:56.650Z,99.99
2022-10-24T07:11:56.644Z,99.99
2022-10-24T07:12:56.676Z,99.68
2022-10-24T07:13:59.689Z,99.78
2022-10-24T07:14:56.623Z,99.99
2022-10-24T07:15:56.614Z,99.99
2022-10-24T07:16:56.609Z,99.99
2022-10-24T07:17:56.632Z,99.63
2022-10-24T07:18:56.587Z,99.99
2022-10-24T07:19:56.563Z,99.53
2022-10-24T07:20:56.564Z,99.53
2022-10-24T07:21:56.566Z,99.63
2022-10-24T07:22:56.568Z,99.63
2022-10-24T07:23:56.530Z,99.53
2022-10-24T07:24:56.635Z,99.94
2022-10-24T07:25:56.521Z,99.99
2022-10-24T07:26:56.517Z,99.99
2022-10-24T07:27:56.571Z,99.63
2022-10-24T07:28:56.628Z,99.63
2022-10-24T07:29:57.346Z,99.78
2022-10-24T07:30:56.477Z,99.99
2022-10-24T07:31:56.559Z,99.99
2022-10-24T07:32:56.515Z,99.99
2022-10-24T07:33:56.445Z,99.99
2022-10-24T07:34:56.417Z,99.99
2022-10-24T07:35:56.408Z,99.99
2022-10-24T07:36:56.398Z,99.99
2022-10-24T07:37:56.456Z,99.99
2022-10-24T07:38:56.430Z,99.99
2022-10-24T07:39:56.419Z,99.74
2022-10-24T07:40:56.364Z,99.84
2022-10-24T07:41:56.330Z,99.99
2022-10-24T07:42:56.384Z,99.99
2022-10-24T07:43:56.347Z,99.99
2022-10-24T07:44:56.364Z,99.99
2022-10-24T07:45:56.327Z,99.99
2022-10-24T07:46:56.336Z,99.99
2022-10-24T07:47:56.277Z,99.58
2022-10-24T07:48:56.880Z,98.97
2022-10-24T07:49:56.289Z,99.18
2022-10-24T07:50:56.292Z,98.27
2022-10-24T07:51:56.233Z,98.07
2022-10-24T07:52:56.243Z,98.68
2022-10-24T07:53:56.246Z,98.68
2022-10-24T07:54:56.228Z,98.68
2022-10-24T07:55:56.242Z,97.96
2022-10-24T07:56:56.218Z,97.56
2022-10-24T07:57:56.192Z,97.56
2022-10-24T07:58:56.208Z,98.16
2022-10-24T07:59:56.179Z,97.96
2022-10-24T08:00:56.182Z,98.27
2022-10-24T08:01:56.244Z,98.47
2022-10-24T08:02:56.192Z,98.77
2022-10-24T08:03:56.158Z,98.97
2022-10-24T08:04:56.112Z,98.47
2022-10-24T08:05:56.116Z,98.88
2022-10-24T08:06:56.104Z,98.97
2022-10-24T08:08:11.983Z,99.18
2022-10-24T08:08:56.093Z,99.38
2022-10-24T08:09:56.091Z,98.88
2022-10-24T08:10:56.116Z,98.43
2022-10-24T08:11:56.035Z,98.12
2022-10-24T08:12:56.122Z,98.37
2022-10-24T08:13:56.006Z,98.77
2022-10-24T08:14:56.027Z,98.93
2022-10-24T08:15:55.994Z,98.73
2022-10-24T08:16:55.997Z,98.73
2022-10-24T08:17:55.976Z,98.83
2022-10-24T08:18:55.965Z,98.52
2022-10-24T08:19:55.968Z,97.41
2022-10-24T08:20:55.997Z,97.81
2022-10-24T08:21:55.957Z,98.22
2022-10-24T08:22:55.928Z,98.73
2022-10-24T08:23:55.908Z,99.04
2022-10-24T08:24:55.923Z,99.44
2022-10-24T08:25:55.908Z,99.24
2022-10-24T08:26:55.887Z,98.83
2022-10-24T08:27:55.894Z,98.93
2022-10-24T08:28:55.864Z,98.63
2022-10-24T08:29:55.899Z,98.43
2022-10-24T08:30:55.922Z,98.58
2022-10-24T08:31:55.850Z,98.28
2022-10-24T08:32:55.824Z,97.77
2022-10-24T08:33:55.860Z,98.07
2022-10-24T08:34:55.836Z,98.38
2022-10-24T08:35:55.794Z,98.58
2022-10-24T08:36:55.852Z,98.68
2022-10-24T08:37:55.794Z,98.43
2022-10-24T08:38:55.800Z,98.13
2022-10-24T08:39:55.814Z,98.13
2022-10-24T08:40:55.826Z,97.92
2022-10-24T08:41:57.961Z,98.03
2022-10-24T08:42:55.741Z,97.92
2022-10-24T08:43:55.759Z,98.13
2022-10-24T08:44:55.761Z,97.98
2022-10-24T08:45:55.714Z,97.58
2022-10-24T08:46:55.714Z,97.47
2022-10-24T08:47:55.683Z,97.47
2022-10-24T08:48:55.703Z,97.58
2022-10-24T08:49:55.680Z,97.88
2022-10-24T08:50:55.646Z,97.98
2022-10-24T08:51:55.708Z,97.98
2022-10-24T08:52:55.651Z,97.58
2022-10-24T08:53:55.699Z,97.47
2022-10-24T08:54:55.631Z,97.67
2022-10-24T08:55:55.636Z,97.88
2022-10-24T08:56:55.605Z,98.28
2022-10-24T08:57:55.644Z,98.39
2022-10-24T08:58:55.626Z,98.28
2022-10-24T08:59:55.580Z,98.18
2022-10-24T09:00:55.653Z,98.14
2022-10-24T09:01:57.464Z,97.94
2022-10-24T09:02:55.681Z,97.63
2022-10-24T09:03:57.031Z,97.43
2022-10-24T09:04:55.558Z,97.43
2022-10-24T09:05:55.543Z,97.13
2022-10-24T09:06:55.503Z,97.23
2022-10-24T09:07:55.755Z,97.53
2022-10-24T09:08:55.499Z,97.49
2022-10-24T09:09:55.468Z,97.38
2022-10-24T09:10:55.468Z,97.38
2022-10-24T09:11:55.585Z,97.18
2022-10-24T09:12:55.478Z,97.03
2022-10-24T09:13:55.419Z,96.63
2022-10-24T09:14:55.461Z,96.33
2022-10-24T09:15:55.418Z,95.82
2022-10-24T09:16:55.423Z,95.82
2022-10-24T09:17:55.423Z,95.67
2022-10-24T09:18:55.414Z,95.17
2022-10-24T09:19:55.378Z,94.76
2022-10-24T09:20:55.389Z,93.91
2022-10-24T09:21:55.362Z,93.60
2022-10-24T09:22:55.367Z,92.60
2022-10-24T09:23:55.340Z,91.24
2022-10-24T09:24:55.330Z,90.94
2022-10-24T09:25:55.314Z,91.03
2022-10-24T09:26:55.342Z,91.64
2022-10-24T09:27:55.290Z,91.24
2022-10-24T09:28:55.275Z,91.34
2022-10-24T09:29:55.263Z,91.94
2022-10-24T09:30:55.285Z,91.85
2022-10-24T09:31:55.274Z,91.74
2022-10-24T09:32:55.270Z,91.85
2022-10-24T09:33:55.231Z,91.94
2022-10-24T09:34:55.311Z,91.64
2022-10-24T09:35:55.258Z,91.60
2022-10-24T09:36:55.310Z,90.69
2022-10-24T09:37:55.294Z,91.50
2022-10-24T09:38:55.213Z,91.60
2022-10-24T09:39:55.171Z,91.50
2022-10-24T09:40:55.671Z,91.60
2022-10-24T09:41:55.274Z,91.50
2022-10-24T09:42:55.158Z,90.79
2022-10-24T09:43:55.157Z,90.39
2022-10-24T09:44:55.142Z,90.69
2022-10-24T09:45:55.120Z,90.79
2022-10-24T09:46:55.092Z,91.39
2022-10-24T09:47:55.101Z,91.50
2022-10-24T09:48:55.066Z,91.30
2022-10-24T09:49:55.076Z,91.50
2022-10-24T09:50:55.085Z,91.14
2022-10-24T09:51:55.049Z,92.81
2022-10-24T09:52:55.085Z,92.55
2022-10-24T09:53:55.028Z,91.64
2022-10-24T09:54:55.018Z,91.74
2022-10-24T09:55:55.011Z,92.05
2022-10-24T09:56:55.001Z,91.24
2022-10-24T09:57:54.979Z,90.99
2022-10-24T09:58:54.991Z,91.50
2022-10-24T09:59:54.961Z,92.00
2022-10-24T10:00:54.998Z,92.30
2022-10-24T10:01:55.087Z,92.91
2022-10-24T10:02:54.932Z,93.01
2022-10-24T10:03:55.100Z,93.72
2022-10-24T10:04:54.978Z,93.62
2022-10-24T10:05:54.914Z,93.32
2022-10-24T10:06:54.962Z,93.21
2022-10-24T10:07:54.953Z,93.62
2022-10-24T10:08:54.941Z,93.41
2022-10-24T10:09:56.732Z,93.32
2022-10-24T10:10:54.855Z,92.71
2022-10-24T10:12:02.545Z,92.46
2022-10-24T10:12:54.839Z,92.57
2022-10-24T10:13:55.278Z,92.36
2022-10-24T10:14:54.875Z,91.86
2022-10-24T10:15:54.787Z,91.91
2022-10-24T10:17:54.780Z,90.41
2022-10-24T10:18:54.825Z,90.30
2022-10-24T10:19:54.784Z,89.45
2022-10-24T10:20:54.827Z,88.75
2022-10-24T10:21:54.824Z,87.63
2022-10-24T10:22:54.716Z,85.88
2022-10-24T10:23:54.705Z,86.79
2022-10-24T10:24:54.819Z,84.43
2022-10-24T10:25:54.722Z,82.21
2022-10-24T10:26:54.694Z,78.05
2022-10-24T10:27:54.664Z,74.62
2022-10-24T10:28:54.784Z,74.18
2022-10-24T10:29:54.687Z,73.44
2022-10-24T10:30:54.650Z,71.03
2022-10-24T10:31:54.659Z,71.00
2022-10-24T10:32:54.624Z,69.89
2022-10-24T10:33:54.614Z,70.09
2022-10-24T10:34:54.634Z,70.46
2022-10-24T10:35:54.601Z,70.16
2022-10-24T10:36:54.700Z,71.06
2022-10-24T10:37:54.703Z,70.86
2022-10-24T10:38:54.574Z,69.96
2022-10-24T10:39:54.610Z,69.96
2022-10-24T10:40:54.559Z,69.65
2022-10-24T10:42:54.525Z,68.72
2022-10-24T10:43:54.533Z,68.21
2022-10-24T10:44:54.530Z,67.91
2022-10-24T10:45:54.608Z,67.61
2022-10-24T10:46:54.497Z,67.11
2022-10-24T10:47:54.563Z,66.51
2022-10-24T10:48:54.511Z,66.00
2022-10-24T10:49:54.532Z,66.41
2022-10-24T10:50:54.478Z,66.91
2022-10-24T10:51:54.458Z,66.31
2022-10-24T10:52:54.442Z,66.61
2022-10-24T10:53:54.454Z,65.10
2022-10-24T10:54:54.429Z,64.50
2022-10-24T10:55:54.460Z,63.90
2022-10-24T10:56:54.574Z,63.90
2022-10-24T10:57:54.403Z,63.96
2022-10-24T10:58:54.391Z,64.07
2022-10-24T10:59:54.335Z,64.47
2022-10-24T11:00:54.329Z,63.46
2022-10-24T11:01:54.549Z,63.87
2022-10-24T11:02:54.649Z,63.17
2022-10-24T11:03:54.432Z,62.86
2022-10-24T11:04:55.696Z,62.96
2022-10-24T11:05:54.274Z,62.76
2022-10-24T11:06:54.675Z,63.36
2022-10-24T11:07:54.340Z,63.43
2022-10-24T11:08:54.296Z,63.03
2022-10-24T11:09:54.298Z,62.83
2022-10-24T11:10:54.266Z,63.64
2022-10-24T11:11:54.254Z,63.53
2022-10-24T11:12:54.227Z,63.84
2022-10-24T11:13:54.255Z,63.93
2022-10-24T11:14:54.232Z,63.93
2022-10-24T11:15:54.221Z,63.53
2022-10-24T11:16:54.270Z,62.43
2022-10-24T11:17:54.210Z,62.43
2022-10-24T11:18:54.177Z,62.73
2022-10-24T11:19:54.267Z,62.13
2022-10-24T11:20:54.233Z,62.00
2022-10-24T11:21:54.151Z,61.40
2022-10-24T11:22:54.133Z,60.69
2022-10-24T11:23:54.126Z,59.59
2022-10-24T11:24:54.130Z,60.36
2022-10-24T11:25:54.111Z,60.06
2022-10-24T11:26:54.060Z,59.36
2022-10-24T11:27:54.092Z,59.53
2022-10-24T11:28:54.098Z,59.74
2022-10-24T11:29:54.105Z,60.14
2022-10-24T11:30:54.094Z,60.24
2022-10-24T11:31:54.122Z,60.14
2022-10-24T11:32:54.052Z,59.74
2022-10-24T11:33:54.027Z,59.83
2022-10-24T11:34:54.101Z,59.66
2022-10-24T11:35:53.992Z,59.66
2022-10-24T11:36:55.821Z,59.46
2022-10-24T11:37:54.005Z,59.46
2022-10-24T11:38:53.955Z,59.26
2022-10-24T11:39:53.975Z,59.86
2022-10-24T11:40:57.765Z,59.49
2022-10-24T11:41:54.007Z,59.49
2022-10-24T11:42:54.032Z,59.79
2022-10-24T11:43:53.921Z,59.89
2022-10-24T11:44:53.959Z,59.69
2022-10-24T11:45:53.926Z,60.12
2022-10-24T11:46:53.939Z,60.29
2022-10-24T11:47:53.916Z,59.99
2022-10-24T11:48:53.917Z,60.52
2022-10-24T11:49:53.876Z,60.42
2022-10-24T11:50:53.863Z,61.02
2022-10-24T11:51:53.849Z,60.93
2022-10-24T11:52:53.939Z,61.13
2022-10-24T11:53:53.870Z,61.13
2022-10-24T11:54:53.848Z,60.72
2022-10-24T11:55:53.846Z,61.02
2022-10-24T11:56:53.774Z,60.93
2022-10-24T11:57:53.771Z,60.72
2022-10-24T11:58:53.766Z,60.42
2022-10-24T11:59:53.800Z,60.22
2022-10-24T12:00:53.733Z,60.02
2022-10-24T12:01:53.860Z,60.42
2022-10-24T12:02:53.854Z,60.62
2022-10-24T12:03:53.726Z,60.82
2022-10-24T12:04:53.708Z,60.12
2022-10-24T12:05:53.779Z,60.72
2022-10-24T12:06:53.695Z,60.62
2022-10-24T12:07:53.811Z,60.82
2022-10-24T12:08:53.702Z,61.22
2022-10-24T12:09:53.662Z,59.75
2022-10-24T12:10:53.656Z,59.92
2022-10-24T12:11:53.662Z,59.95
2022-10-24T12:12:53.674Z,60.93
2022-10-24T12:13:53.759Z,60.32
2022-10-24T12:14:53.628Z,61.02
2022-10-24T12:15:53.675Z,61.05
2022-10-24T12:16:53.625Z,60.62
2022-10-24T12:17:53.700Z,60.72
2022-10-24T12:18:53.552Z,59.62
2022-10-24T12:19:53.617Z,60.42
2022-10-24T12:20:53.559Z,60.02
2022-10-24T12:21:53.550Z,60.12
2022-10-24T12:22:53.539Z,59.82
2022-10-24T12:23:53.541Z,59.49
2022-10-24T12:24:53.514Z,58.18
2022-10-24T12:25:53.566Z,58.09
2022-10-24T12:26:53.619Z,57.79
2022-10-24T12:27:53.510Z,57.48
2022-10-24T12:28:53.482Z,57.08
2022-10-24T12:29:53.488Z,56.48
2022-10-24T12:31:53.438Z,56.85
2022-10-24T12:32:53.402Z,55.95
2022-10-24T12:33:53.462Z,56.05
2022-10-24T12:34:58.368Z,55.65
2022-10-24T12:35:53.490Z,55.85
2022-10-24T12:36:53.388Z,55.55
2022-10-24T12:37:53.401Z,55.45
2022-10-24T12:38:54.521Z,55.95
2022-10-24T12:39:57.609Z,56.15
2022-10-24T12:40:53.356Z,56.26
2022-10-24T12:41:53.334Z,55.85
2022-10-24T12:42:53.310Z,55.95
2022-10-24T12:43:53.372Z,56.05
2022-10-24T12:44:53.342Z,56.33
2022-10-24T12:45:53.331Z,56.43
2022-10-24T12:46:53.309Z,55.82
2022-10-24T12:47:53.397Z,55.52
2022-10-24T12:48:53.305Z,55.82
2022-10-24T12:49:53.310Z,55.82
2022-10-24T12:50:53.251Z,55.02
2022-10-24T12:51:53.257Z,55.13
2022-10-24T12:52:53.268Z,55.13
2022-10-24T12:53:53.242Z,54.80
2022-10-24T12:54:53.210Z,55.40
2022-10-24T12:55:53.230Z,55.10